Aviation Digital Data Service (ADDS)

Output produced by METARs form (1505 UTC 19 January 2017)
found at http://aviationweather.gov/adds/metars/
 
KLFT 191453Z 20011KT 9SM -RA SCT090 OVC110 21/19 A2992 RMK AO2 SLP130 P0003 60026 T02060189 51010